Latest Weather Observations for Learmonth

IDW60801

Issued at 2:35 pm WST Friday 31 October 2014 (issued every 30 minutes, with the page automatically refreshed every 10 minutes)

About weather observations | Map of weather stations | Latest weather observations for WA | Other Formats
Station Details ID: 005007 Name: LEARMONTH AIRPORT Lat: -22.24 Lon: 114.10 Height: 5.0 m
Data from the previous 72 hours. | See also: Recent months at Learmonth
Date/Time
WST
Temp
°C
App
Temp
°C
Dew
Point
Rel
Hum
%
Delta-T
°C
Wind Press
QNH
hPa
Press
MSL
hPa
Rain
since 9 am
mm
Dir
 
Spd
km/h
Gust
km/h
Spd
kts
Gust
kts
31/02:30pm 33.0 27.1 7.7 21 14.0 SW 28 41 15 22 1010.3 - 0.0
31/02:00pm 32.5 26.1 7.0 20 13.9 SSW 30 43 16 23 1010.7 - 0.0
31/01:48pm 33.3 27.4 7.3 20 14.3 SW 28 56 15 30 1010.7 - 0.0
31/01:30pm 32.4 26.2 4.5 17 14.6 S 26 37 14 20 1011.0 - 0.0
31/01:00pm 32.3 26.7 5.3 18 14.3 S 24 37 13 20 1011.7 - 0.0
31/12:30pm 30.9 26.0 7.1 22 12.9 SSW 22 35 12 19 1012.2 - 0.0
31/12:00pm 30.0 25.4 8.1 25 12.0 S 22 35 12 19 1012.6 1012.5 0.0
31/11:30am 29.3 25.3 9.1 28 11.2 S 20 30 11 16 1012.9 - 0.0
31/11:00am 27.7 23.5 9.7 32 10.0 S 22 33 12 18 1013.4 - 0.0
31/10:30am 26.1 21.3 10.3 37 8.8 S 26 37 14 20 1013.9 - 0.0
31/10:00am 25.6 20.1 10.5 38 8.4 S 30 41 16 22 1014.2 - 0.0
31/09:30am 25.2 19.9 11.2 41 7.9 S 30 43 16 23 1014.3 - 0.0
31/09:00am 23.6 17.9 11.0 45 7.0 SSW 32 43 17 23 1014.6 1014.5 0.0
31/08:30am 22.4 17.0 12.1 52 5.8 SSW 32 43 17 23 1014.6 - 0.0
31/08:00am 21.7 16.6 13.1 58 4.9 S 32 43 17 23 1014.5 - 0.0
31/07:30am 21.1 16.5 13.4 61 4.4 SSW 30 39 16 21 1014.4 - 0.0
31/07:00am 19.6 15.5 13.7 68 3.4 SSW 28 35 15 19 1014.2 - 0.0
31/06:30am 18.2 15.7 14.0 76 2.4 SSW 20 26 11 14 1014.0 - 0.0
31/06:00am 17.2 14.9 14.0 81 1.8 SSW 19 22 10 12 1013.7 1013.6 0.0
31/05:30am 17.2 15.6 13.9 81 1.9 S 15 20 8 11 1013.3 - 0.0
31/05:00am 17.5 15.0 14.0 80 2.0 SSW 20 26 11 14 1013.1 - 0.0
31/04:30am 17.8 15.3 14.1 79 2.1 S 20 28 11 15 1013.0 - 0.0
31/04:00am 18.2 15.4 14.2 77 2.3 SSW 22 32 12 17 1013.0 - 0.0
31/03:30am 18.5 15.6 14.1 75 2.5 S 22 30 12 16 1012.8 - 0.0
31/03:00am 18.8 15.3 14.5 76 2.5 S 26 35 14 19 1012.9 1012.8 0.0
31/02:30am 18.9 15.5 14.8 77 2.4 S 26 33 14 18 1012.6 - 0.0
31/02:00am 19.0 16.1 15.1 78 2.3 SSW 24 33 13 18 1012.9 - 0.0
31/01:30am 19.2 16.4 15.3 78 2.3 SSW 24 32 13 17 1013.1 - 0.0
31/01:00am 19.3 15.8 15.6 79 2.2 SSW 28 39 15 21 1013.3 - 0.0
31/12:30am 19.6 16.2 15.9 79 2.2 SSW 28 37 15 20 1013.5 - 0.0
31/12:00am 19.8 16.6 16.3 80 2.1 SSW 28 35 15 19 1013.5 1013.4 0.0
 
Date/Time
WST
Temp
°C
App
Temp
°C
Dew
Point
Rel
Hum
%
Delta-T
°C
Wind Press
QNH
hPa
Press
MSL
hPa
Rain
since 9 am
mm
Dir
 
Spd
km/h
Gust
km/h
Spd
kts
Gust
kts
30/11:30pm 20.1 17.0 16.6 80 2.1 SSW 28 33 15 18 1013.9 - 0.0
30/11:00pm 20.4 17.8 16.8 80 2.2 SSW 26 33 14 18 1014.1 - 0.0
30/10:30pm 20.7 17.0 16.9 79 2.3 SSW 32 41 17 22 1014.3 - 0.0
30/10:00pm 20.9 17.5 16.8 77 2.5 SSW 30 43 16 23 1014.3 - 0.0
30/09:30pm 21.1 17.6 16.6 75 2.7 SSW 30 41 16 22 1014.0 - 0.0
30/09:00pm 21.3 18.0 16.9 76 2.7 SSW 30 39 16 21 1013.8 1013.7 0.0
30/08:30pm 21.6 18.3 17.0 75 2.8 SW 30 41 16 22 1013.7 - 0.0
30/08:00pm 21.9 18.1 16.6 72 3.2 SSW 32 43 17 23 1013.4 - 0.0
30/07:30pm 22.3 18.8 16.4 69 3.6 SSW 30 44 16 24 1012.9 - 0.0
30/07:00pm 23.2 19.5 16.1 64 4.3 SSW 30 39 16 21 1012.5 - 0.0
30/06:30pm 24.8 20.8 15.3 55 5.7 SW 30 37 16 20 1012.1 - 0.0
30/06:00pm 27.3 23.3 14.1 44 7.9 SW 28 33 15 18 1011.5 1011.4 0.0
30/05:30pm 29.2 25.8 13.6 38 9.3 SSW 24 32 13 17 1011.0 - 0.0
30/05:00pm 31.2 27.4 12.4 31 11.1 SW 24 33 13 18 1010.7 - 0.0
30/04:30pm 32.2 28.4 11.3 27 12.2 SW 22 30 12 16 1010.4 - 0.0
30/04:00pm 33.0 28.6 10.3 25 13.1 SW 24 32 13 17 1010.3 - 0.0
30/03:30pm 33.1 28.7 10.4 25 13.1 SW 24 32 13 17 1010.3 - 0.0
30/03:00pm 33.9 29.3 9.6 22 13.9 SW 24 33 13 18 1010.3 1010.2 0.0
30/02:30pm 33.8 29.1 10.8 24 13.4 SW 26 37 14 20 1010.3 - 0.0
30/02:00pm 33.3 28.8 11.3 26 12.9 SW 26 35 14 19 1010.7 - 0.0
30/01:30pm 33.8 28.9 11.3 25 13.2 SSW 28 35 15 19 1010.9 - 0.0
30/01:00pm 33.3 29.0 12.0 27 12.6 SSW 26 37 14 20 1011.3 - 0.0
30/12:30pm 32.4 27.6 11.6 28 12.2 SW 28 39 15 21 1011.6 - 0.0
30/12:00pm 32.5 27.9 11.2 27 12.4 SW 26 35 14 19 1012.0 1011.9 0.0
30/11:30am 31.8 27.3 11.4 28 11.9 SSW 26 35 14 19 1012.4 - 0.0
30/11:00am 30.9 26.1 10.4 28 11.7 SW 26 33 14 18 1012.8 - 0.0
30/10:30am 29.9 26.6 11.6 32 10.6 SSW 20 28 11 15 1013.4 - 0.0
30/10:00am 28.1 24.8 12.7 38 9.0 SSW 22 32 12 17 1014.0 - 0.0
30/09:30am 26.7 23.8 13.9 45 7.6 SSW 22 28 12 15 1014.2 - 0.0
30/09:00am 25.4 22.4 14.7 51 6.4 SSW 24 32 13 17 1014.4 1014.3 0.0
30/08:30am 24.7 21.5 15.2 55 5.7 SSW 26 32 14 17 1014.6 - 0.0
30/08:00am 22.5 19.1 15.7 65 4.1 SSW 28 35 15 19 1014.5 - 0.0
30/07:30am 21.1 17.7 15.9 72 3.1 SSW 28 37 15 20 1014.5 - 0.0
30/07:00am 19.9 17.0 16.0 78 2.3 SSW 26 33 14 18 1014.3 - 0.0
30/06:30am 18.8 16.3 16.1 84 1.6 SSW 24 30 13 16 1013.9 - 0.0
30/06:00am 18.2 16.0 16.0 87 1.3 SSW 22 30 12 16 1013.5 1013.4 0.0
30/05:30am 18.1 16.3 16.1 88 1.2 SSW 20 26 11 14 1013.1 - 0.0
30/05:00am 18.1 16.3 16.1 88 1.2 SSW 20 24 11 13 1012.8 - 0.0
30/04:30am 18.1 16.9 16.1 88 1.2 SSW 17 22 9 12 1012.6 - 0.0
30/04:00am 18.2 17.0 16.2 88 1.2 SSW 17 22 9 12 1012.4 - 0.0
30/03:30am 18.5 17.1 16.5 88 1.2 SSW 19 24 10 13 1012.4 - 0.0
30/03:00am 18.7 17.1 16.5 87 1.3 SSW 20 26 11 14 1012.2 1012.1 0.0
30/02:30am 18.9 17.4 16.7 87 1.3 SSW 20 24 11 13 1012.1 - 0.0
30/02:00am 19.2 17.8 17.1 88 1.3 SSW 20 26 11 14 1012.3 - 0.0
30/01:30am 19.5 18.2 17.2 86 1.4 SSW 20 26 11 14 1012.7 - 0.0
30/01:00am 19.7 18.5 17.6 88 1.3 SSW 20 28 11 15 1013.0 - 0.0
30/12:30am 19.9 18.8 17.8 88 1.3 SSW 20 28 11 15 1013.1 - 0.0
30/12:00am 20.2 18.5 18.1 88 1.3 SSW 24 28 13 15 1013.3 1013.2 0.0
 
Date/Time
WST
Temp
°C
App
Temp
°C
Dew
Point
Rel
Hum
%
Delta-T
°C
Wind Press
QNH
hPa
Press
MSL
hPa
Rain
since 9 am
mm
Dir
 
Spd
km/h
Gust
km/h
Spd
kts
Gust
kts
29/11:30pm 20.6 19.0 18.4 87 1.4 SSW 24 32 13 17 1013.5 - 0.0
29/11:00pm 20.9 18.9 18.3 85 1.6 SSW 26 33 14 18 1013.7 - 0.0
29/10:30pm 21.1 19.1 18.4 84 1.7 SSW 26 35 14 19 1013.8 - 0.0
29/10:00pm 21.3 19.0 18.4 83 1.8 SSW 28 37 15 20 1014.0 - 0.0
29/09:30pm 21.5 19.1 18.3 82 2.0 SSW 28 33 15 18 1013.7 - 0.0
29/09:00pm 21.8 19.0 18.3 80 2.2 SSW 30 39 16 21 1013.7 1013.6 0.0
29/08:30pm 22.3 19.5 18.1 77 2.6 SSW 30 37 16 20 1013.6 - 0.0
29/08:00pm 22.7 20.1 17.9 74 3.0 SW 28 37 15 20 1013.4 - 0.0
29/07:30pm 23.4 20.3 17.6 70 3.6 SW 30 39 16 21 1013.0 - 0.0
29/07:00pm 24.7 21.1 17.1 62 4.7 SW 32 39 17 21 1012.5 - 0.0
29/06:30pm 26.4 22.6 15.8 52 6.5 SW 30 37 16 20 1012.2 - 0.0
29/06:00pm 28.9 24.0 12.7 36 9.5 SW 30 35 16 19 1011.8 1011.7 0.0
29/05:30pm 31.2 26.1 9.3 25 12.3 WSW 26 35 14 19 1011.5 - 0.0
29/05:00pm 32.7 27.0 6.8 20 14.1 SW 26 33 14 18 1011.4 - 0.0
29/04:30pm 33.8 27.9 4.0 15 15.6 WSW 24 33 13 18 1011.2 - 0.0
29/04:00pm 33.9 28.3 5.3 17 15.3 SW 24 35 13 19 1011.1 - 0.0
29/03:30pm 34.7 28.6 8.2 19 14.9 W 30 39 16 21 1011.1 - 0.0
29/03:00pm 35.2 30.3 8.5 19 15.1 WSW 24 39 13 21 1011.1 1011.0 0.0
29/02:30pm 35.6 30.9 5.1 15 16.4 W 19 24 10 13 1011.2 - 0.0
29/02:00pm 35.8 29.9 1.7 11 17.4 SW 22 35 12 19 1011.4 - 0.0
29/01:30pm 35.3 29.2 2.5 13 16.9 WSW 24 35 13 19 1011.6 - 0.0
29/01:00pm 35.2 29.1 4.6 15 16.3 WSW 26 33 14 18 1011.9 - 0.0
29/12:30pm 35.1 31.1 6.8 17 15.6 SW 17 32 9 17 1012.1 - 0.0
29/12:00pm 33.3 30.0 9.4 23 13.6 SW 17 24 9 13 1012.5 1012.4 0.0
29/11:30am 33.5 30.5 10.8 25 13.2 SSW 17 28 9 15 1012.9 - 0.0
29/11:00am 31.5 29.1 11.4 29 11.7 SW 15 24 8 13 1013.3 - 0.0
29/10:30am 30.6 28.7 12.9 33 10.5 S 15 22 8 12 1013.6 - 0.0
29/10:00am 29.3 27.4 14.2 39 9.1 S 17 24 9 13 1013.7 - 0.0
29/09:30am 28.3 25.8 15.2 44 8.0 S 22 26 12 14 1014.0 - 0.0
29/09:00am 26.5 24.0 16.1 52 6.4 S 24 32 13 17 1014.2 1014.1 0.0
29/08:30am 24.6 21.0 16.2 59 5.1 SSW 30 35 16 19 1014.1 - 0.0
29/08:00am 23.5 20.7 17.4 68 3.8 SSW 28 39 15 21 1014.0 - 0.0
29/07:30am 22.4 18.9 17.5 74 3.0 SSW 32 41 17 22 1013.8 - 0.0
29/07:00am 21.4 19.4 17.5 78 2.4 SSW 24 33 13 18 1013.7 - 0.0
29/06:30am 20.5 18.2 17.6 83 1.8 SSW 26 33 14 18 1013.5 - 0.0
29/06:00am 20.0 18.1 17.6 86 1.5 SSW 24 32 13 17 1013.2 1013.1 0.0
29/05:30am 20.0 18.1 17.7 86 1.4 SSW 24 30 13 16 1013.1 - 0.0
29/05:00am 20.0 18.6 17.9 88 1.3 SSW 22 30 12 16 1012.9 - 0.0
29/04:30am 20.3 18.6 18.0 87 1.4 SSW 24 32 13 17 1012.6 - 0.0
29/04:00am 20.3 18.6 18.2 88 1.3 SSW 24 35 13 19 1012.5 - 0.0
29/03:30am 20.4 18.5 18.5 89 1.2 SSW 26 33 14 18 1012.5 - 0.0
29/03:00am 20.5 19.0 18.6 89 1.2 SSW 24 35 13 19 1012.4 1012.3 0.0
29/02:30am 20.4 19.8 18.5 89 1.2 SSW 19 24 10 13 1012.3 - 0.0
29/02:00am 20.5 19.6 18.2 87 1.4 SSW 20 28 11 15 1012.3 - 0.0
29/01:30am 20.2 19.7 17.9 87 1.4 SSW 17 22 9 12 1011.8 - 0.0
29/01:00am 20.7 19.4 18.1 85 1.6 SSW 22 30 12 16 1011.8 - 0.0
29/12:30am 20.7 19.9 18.5 87 1.4 SSW 20 28 11 15 1011.8 - 0.0
29/12:00am 21.0 19.0 18.4 85 1.6 SW 26 32 14 17 1011.8 1011.7 0.0
 
Date/Time
WST
Temp
°C
App
Temp
°C
Dew
Point
Rel
Hum
%
Delta-T
°C
Wind Press
QNH
hPa
Press
MSL
hPa
Rain
since 9 am
mm
Dir
 
Spd
km/h
Gust
km/h
Spd
kts
Gust
kts
28/11:30pm 21.3 19.7 18.4 83 1.8 SW 24 37 13 20 1011.9 - 0.0
28/11:00pm 21.6 20.3 18.1 80 2.2 SW 22 30 12 16 1012.2 - 0.0
28/10:30pm 21.8 20.3 17.8 78 2.5 SW 22 28 12 15 1012.2 - 0.0
28/10:00pm 22.0 20.2 17.8 77 2.6 SW 24 32 13 17 1012.1 - 0.0
28/09:30pm 22.4 20.7 18.1 76 2.7 SW 24 32 13 17 1011.9 - 0.0
28/09:00pm 22.6 20.6 17.4 72 3.2 SW 24 33 13 18 1011.8 1011.7 0.0
28/08:30pm 22.9 20.3 17.9 73 3.1 SW 28 37 15 20 1011.5 - 0.0
28/08:00pm 23.6 20.9 16.6 65 4.3 SW 26 35 14 19 1011.3 - 0.0
28/07:30pm 24.2 21.4 16.3 61 4.8 SW 26 39 14 21 1011.1 - 0.0
28/07:00pm 24.7 21.5 18.2 67 4.1 WSW 32 41 17 22 1010.7 - 0.0
28/06:30pm 26.2 23.4 18.3 61 5.0 SW 30 39 16 21 1010.2 - 0.0
28/06:00pm 28.9 24.6 15.4 44 8.3 SW 32 41 17 22 1009.6 1009.5 0.0
28/05:30pm 31.3 26.4 13.7 34 10.6 SW 32 39 17 21 1009.2 - 0.0
28/05:00pm 33.5 27.5 10.1 23 13.5 WSW 32 39 17 21 1008.8 - 0.0
28/04:30pm 33.9 30.7 17.2 37 10.7 W 30 37 16 20 1008.5 - 0.0
28/04:00pm 36.6 31.0 7.0 16 16.5 SW 26 33 14 18 1008.5 - 0.0
28/03:30pm 37.2 31.3 5.6 14 17.3 SW 26 37 14 20 1008.6 - 0.0
28/03:00pm 37.2 31.2 5.2 14 17.4 WSW 26 35 14 19 1008.9 1008.8 0.0

Other Formats:

Comma delimited format used in spreadsheet applications
http://www.bom.gov.au/fwo/IDW60801/IDW60801.94302.axf

JavaScript Object Notation format (JSON) in row-major order
http://www.bom.gov.au/fwo/IDW60801/IDW60801.94302.json